Terminal Aerodrome Forecast
Issued by NWS

Home | Current Version | Previous Version | Graphics & Text | Print | Product List | Glossary On
Versions: 1 2 3 4 5 6 7 8 9 10 11 12 13 14 15 16 17 18
946
FTUS43 KIWX 210228 AAA
TAFSBN
TAF AMD
KSBN 210228Z 2102/2124 12012KT 6SM -SHRA BR VCTS SCT005 OVC008CB
      TEMPO 2102/2104 3SM -SHRA BR OVC005
     FM210400 16007KT 5SM BR OVC020
     FM211200 22007KT 5SM BR BKN008
     FM211500 24010KT P6SM SCT030=

USA.gov is the U.S. government's official web portal to all federal, state and local government web resources and services.